sensor_id;sensor_type;location;lat;lon;timestamp;P1;durP1;ratioP1;P2;durP2;ratioP2
77864;SDS011;67061;48.524;9.040;2024-01-10T00:00:46;20.83;;;8.88;;
77864;SDS011;67061;48.524;9.040;2024-01-10T00:03:13;17.25;;;7.90;;
77864;SDS011;67061;48.524;9.040;2024-01-10T00:05:40;20.55;;;8.95;;
77864;SDS011;67061;48.524;9.040;2024-01-10T00:08:07;23.35;;;9.75;;
77864;SDS011;67061;48.524;9.040;2024-01-10T00:10:34;24.27;;;11.27;;
77864;SDS011;67061;48.524;9.040;2024-01-10T00:13:03;19.85;;;8.93;;
77864;SDS011;67061;48.524;9.040;2024-01-10T00:15:30;21.85;;;9.25;;
77864;SDS011;67061;48.524;9.040;2024-01-10T00:17:57;22.23;;;9.63;;
77864;SDS011;67061;48.524;9.040;2024-01-10T00:20:24;25.80;;;10.45;;
77864;SDS011;67061;48.524;9.040;2024-01-10T00:22:50;25.52;;;10.27;;
77864;SDS011;67061;48.524;9.040;2024-01-10T00:25:17;24.13;;;10.60;;
77864;SDS011;67061;48.524;9.040;2024-01-10T00:27:44;24.38;;;9.88;;
77864;SDS011;67061;48.524;9.040;2024-01-10T00:30:12;21.65;;;10.32;;
77864;SDS011;67061;48.524;9.040;2024-01-10T00:32:39;27.75;;;10.80;;
77864;SDS011;67061;48.524;9.040;2024-01-10T00:35:06;25.92;;;10.45;;
77864;SDS011;67061;48.524;9.040;2024-01-10T00:37:33;21.17;;;9.70;;
77864;SDS011;67061;48.524;9.040;2024-01-10T00:40:00;21.77;;;10.57;;
77864;SDS011;67061;48.524;9.040;2024-01-10T00:42:27;26.10;;;11.55;;
77864;SDS011;67061;48.524;9.040;2024-01-10T00:44:54;27.33;;;10.73;;
77864;SDS011;67061;48.524;9.040;2024-01-10T00:47:23;25.27;;;10.68;;
77864;SDS011;67061;48.524;9.040;2024-01-10T00:49:49;24.65;;;9.73;;
77864;SDS011;67061;48.524;9.040;2024-01-10T00:52:16;23.15;;;11.27;;
77864;SDS011;67061;48.524;9.040;2024-01-10T00:54:43;29.40;;;11.48;;
77864;SDS011;67061;48.524;9.040;2024-01-10T00:57:11;22.42;;;10.63;;
77864;SDS011;67061;48.524;9.040;2024-01-10T00:59:38;26.27;;;10.45;;
77864;SDS011;67061;48.524;9.040;2024-01-10T01:02:05;26.58;;;10.82;;
77864;SDS011;67061;48.524;9.040;2024-01-10T01:04:33;29.33;;;10.57;;
77864;SDS011;67061;48.524;9.040;2024-01-10T01:07:00;26.48;;;12.13;;
77864;SDS011;67061;48.524;9.040;2024-01-10T01:09:27;29.65;;;13.50;;
77864;SDS011;67061;48.524;9.040;2024-01-10T01:11:54;31.42;;;14.85;;
77864;SDS011;67061;48.524;9.040;2024-01-10T01:14:21;27.63;;;10.38;;
77864;SDS011;67061;48.524;9.040;2024-01-10T01:16:47;29.20;;;11.95;;
77864;SDS011;67061;48.524;9.040;2024-01-10T01:19:13;29.20;;;13.80;;
77864;SDS011;67061;48.524;9.040;2024-01-10T01:21:42;27.23;;;11.88;;
77864;SDS011;67061;48.524;9.040;2024-01-10T01:24:09;29.98;;;12.73;;
77864;SDS011;67061;48.524;9.040;2024-01-10T01:26:36;28.08;;;11.55;;
77864;SDS011;67061;48.524;9.040;2024-01-10T01:29:03;28.90;;;11.98;;
77864;SDS011;67061;48.524;9.040;2024-01-10T01:31:30;29.10;;;12.02;;
77864;SDS011;67061;48.524;9.040;2024-01-10T01:33:57;31.77;;;13.13;;
77864;SDS011;67061;48.524;9.040;2024-01-10T01:36:25;24.60;;;11.80;;
77864;SDS011;67061;48.524;9.040;2024-01-10T01:38:53;26.75;;;12.23;;
77864;SDS011;67061;48.524;9.040;2024-01-10T01:41:20;31.35;;;11.85;;
77864;SDS011;67061;48.524;9.040;2024-01-10T01:43:47;26.42;;;15.27;;
77864;SDS011;67061;48.524;9.040;2024-01-10T01:46:13;28.42;;;11.57;;
77864;SDS011;67061;48.524;9.040;2024-01-10T01:48:40;23.38;;;9.80;;
77864;SDS011;67061;48.524;9.040;2024-01-10T01:51:08;23.13;;;12.18;;
77864;SDS011;67061;48.524;9.040;2024-01-10T01:53:37;22.50;;;9.93;;
77864;SDS011;67061;48.524;9.040;2024-01-10T01:56:07;25.52;;;11.25;;
77864;SDS011;67061;48.524;9.040;2024-01-10T01:58:35;23.73;;;10.95;;
77864;SDS011;67061;48.524;9.040;2024-01-10T02:01:03;24.45;;;9.60;;
77864;SDS011;67061;48.524;9.040;2024-01-10T02:03:30;24.40;;;10.07;;
77864;SDS011;67061;48.524;9.040;2024-01-10T02:05:57;19.70;;;9.70;;
77864;SDS011;67061;48.524;9.040;2024-01-10T02:08:24;22.85;;;10.27;;
77864;SDS011;67061;48.524;9.040;2024-01-10T02:10:51;23.88;;;9.05;;
77864;SDS011;67061;48.524;9.040;2024-01-10T02:13:20;17.85;;;8.23;;
77864;SDS011;67061;48.524;9.040;2024-01-10T02:15:47;18.98;;;9.18;;
77864;SDS011;67061;48.524;9.040;2024-01-10T02:18:14;19.25;;;8.07;;
77864;SDS011;67061;48.524;9.040;2024-01-10T02:20:42;20.95;;;10.13;;
77864;SDS011;67061;48.524;9.040;2024-01-10T02:23:09;22.63;;;8.80;;
77864;SDS011;67061;48.524;9.040;2024-01-10T02:25:38;20.55;;;9.35;;
77864;SDS011;67061;48.524;9.040;2024-01-10T02:28:06;19.65;;;8.32;;
77864;SDS011;67061;48.524;9.040;2024-01-10T02:30:34;18.48;;;8.57;;
77864;SDS011;67061;48.524;9.040;2024-01-10T02:33:01;20.80;;;8.52;;
77864;SDS011;67061;48.524;9.040;2024-01-10T02:35:28;21.38;;;9.07;;
77864;SDS011;67061;48.524;9.040;2024-01-10T02:37:58;21.48;;;9.00;;
77864;SDS011;67061;48.524;9.040;2024-01-10T02:40:25;20.15;;;8.27;;
77864;SDS011;67061;48.524;9.040;2024-01-10T02:42:53;21.02;;;9.20;;
77864;SDS011;67061;48.524;9.040;2024-01-10T02:45:20;25.60;;;10.20;;
77864;SDS011;67061;48.524;9.040;2024-01-10T02:47:47;21.92;;;9.23;;
77864;SDS011;67061;48.524;9.040;2024-01-10T02:50:14;21.67;;;8.25;;
77864;SDS011;67061;48.524;9.040;2024-01-10T02:52:41;18.48;;;8.43;;
77864;SDS011;67061;48.524;9.040;2024-01-10T02:55:08;21.85;;;9.07;;
77864;SDS011;67061;48.524;9.040;2024-01-10T02:57:35;22.20;;;8.90;;
77864;SDS011;67061;48.524;9.040;2024-01-10T03:00:04;22.88;;;10.07;;
77864;SDS011;67061;48.524;9.040;2024-01-10T03:02:32;20.42;;;8.77;;
77864;SDS011;67061;48.524;9.040;2024-01-10T03:04:59;21.15;;;8.98;;
77864;SDS011;67061;48.524;9.040;2024-01-10T03:07:26;21.63;;;10.48;;
77864;SDS011;67061;48.524;9.040;2024-01-10T03:09:53;21.20;;;9.90;;
77864;SDS011;67061;48.524;9.040;2024-01-10T03:12:20;24.45;;;10.50;;
77864;SDS011;67061;48.524;9.040;2024-01-10T03:14:47;21.60;;;9.48;;
77864;SDS011;67061;48.524;9.040;2024-01-10T03:17:15;23.55;;;9.77;;
77864;SDS011;67061;48.524;9.040;2024-01-10T03:19:42;25.60;;;12.05;;
77864;SDS011;67061;48.524;9.040;2024-01-10T03:22:09;25.35;;;11.27;;
77864;SDS011;67061;48.524;9.040;2024-01-10T03:24:36;27.13;;;11.82;;
77864;SDS011;67061;48.524;9.040;2024-01-10T03:27:03;24.48;;;10.55;;
77864;SDS011;67061;48.524;9.040;2024-01-10T03:29:30;21.10;;;9.65;;
77864;SDS011;67061;48.524;9.040;2024-01-10T03:31:57;24.48;;;9.85;;
77864;SDS011;67061;48.524;9.040;2024-01-10T03:34:25;23.65;;;10.63;;
77864;SDS011;67061;48.524;9.040;2024-01-10T03:36:52;23.70;;;10.65;;
77864;SDS011;67061;48.524;9.040;2024-01-10T03:39:19;21.77;;;9.35;;
77864;SDS011;67061;48.524;9.040;2024-01-10T03:41:46;25.40;;;11.15;;
77864;SDS011;67061;48.524;9.040;2024-01-10T03:44:12;22.48;;;10.07;;
77864;SDS011;67061;48.524;9.040;2024-01-10T03:46:39;23.83;;;8.68;;
77864;SDS011;67061;48.524;9.040;2024-01-10T03:49:06;25.10;;;10.05;;
77864;SDS011;67061;48.524;9.040;2024-01-10T03:51:34;25.33;;;10.63;;
77864;SDS011;67061;48.524;9.040;2024-01-10T03:54:01;21.25;;;10.30;;
77864;SDS011;67061;48.524;9.040;2024-01-10T03:56:28;27.17;;;10.75;;
77864;SDS011;67061;48.524;9.040;2024-01-10T03:58:55;23.23;;;10.55;;
77864;SDS011;67061;48.524;9.040;2024-01-10T04:01:22;22.58;;;11.10;;
77864;SDS011;67061;48.524;9.040;2024-01-10T04:03:49;24.48;;;9.95;;
77864;SDS011;67061;48.524;9.040;2024-01-10T04:06:16;25.67;;;10.48;;
77864;SDS011;67061;48.524;9.040;2024-01-10T04:08:44;22.98;;;10.43;;
77864;SDS011;67061;48.524;9.040;2024-01-10T04:11:11;23.63;;;10.52;;
77864;SDS011;67061;48.524;9.040;2024-01-10T04:13:38;22.95;;;9.98;;
77864;SDS011;67061;48.524;9.040;2024-01-10T04:16:05;23.63;;;10.68;;
77864;SDS011;67061;48.524;9.040;2024-01-10T04:18:32;25.45;;;10.77;;
77864;SDS011;67061;48.524;9.040;2024-01-10T04:20:59;23.25;;;10.40;;
77864;SDS011;67061;48.524;9.040;2024-01-10T04:23:26;21.48;;;10.25;;
77864;SDS011;67061;48.524;9.040;2024-01-10T04:25:54;27.13;;;11.32;;
77864;SDS011;67061;48.524;9.040;2024-01-10T04:28:21;24.52;;;10.43;;
77864;SDS011;67061;48.524;9.040;2024-01-10T04:30:48;25.83;;;11.23;;
77864;SDS011;67061;48.524;9.040;2024-01-10T04:33:15;23.73;;;11.35;;
77864;SDS011;67061;48.524;9.040;2024-01-10T04:35:42;25.48;;;11.52;;
77864;SDS011;67061;48.524;9.040;2024-01-10T04:38:09;23.23;;;10.48;;
77864;SDS011;67061;48.524;9.040;2024-01-10T04:40:36;26.25;;;11.82;;
77864;SDS011;67061;48.524;9.040;2024-01-10T04:43:04;23.63;;;11.32;;
77864;SDS011;67061;48.524;9.040;2024-01-10T04:45:31;28.25;;;10.70;;
77864;SDS011;67061;48.524;9.040;2024-01-10T04:47:58;22.98;;;10.48;;
77864;SDS011;67061;48.524;9.040;2024-01-10T04:50:25;25.70;;;13.05;;
77864;SDS011;67061;48.524;9.040;2024-01-10T04:52:51;25.35;;;11.18;;
77864;SDS011;67061;48.524;9.040;2024-01-10T04:55:18;24.70;;;11.88;;
77864;SDS011;67061;48.524;9.040;2024-01-10T04:57:45;25.67;;;10.48;;
77864;SDS011;67061;48.524;9.040;2024-01-10T05:00:14;23.23;;;11.00;;
77864;SDS011;67061;48.524;9.040;2024-01-10T05:02:40;22.55;;;10.55;;
77864;SDS011;67061;48.524;9.040;2024-01-10T05:05:08;25.45;;;10.63;;
77864;SDS011;67061;48.524;9.040;2024-01-10T05:07:35;25.20;;;10.52;;
77864;SDS011;67061;48.524;9.040;2024-01-10T05:10:02;23.17;;;11.48;;
77864;SDS011;67061;48.524;9.040;2024-01-10T05:12:29;27.77;;;11.48;;
77864;SDS011;67061;48.524;9.040;2024-01-10T05:14:56;25.05;;;10.77;;
77864;SDS011;67061;48.524;9.040;2024-01-10T05:17:24;27.85;;;11.13;;
77864;SDS011;67061;48.524;9.040;2024-01-10T05:19:51;27.35;;;10.90;;
77864;SDS011;67061;48.524;9.040;2024-01-10T05:22:20;23.45;;;10.38;;
77864;SDS011;67061;48.524;9.040;2024-01-10T05:24:47;25.90;;;11.07;;
77864;SDS011;67061;48.524;9.040;2024-01-10T05:27:14;25.10;;;11.18;;
77864;SDS011;67061;48.524;9.040;2024-01-10T05:29:41;25.40;;;11.98;;
77864;SDS011;67061;48.524;9.040;2024-01-10T05:32:08;26.33;;;11.25;;
77864;SDS011;67061;48.524;9.040;2024-01-10T05:34:36;23.65;;;10.23;;
77864;SDS011;67061;48.524;9.040;2024-01-10T05:37:03;22.20;;;10.23;;
77864;SDS011;67061;48.524;9.040;2024-01-10T05:39:30;26.75;;;11.75;;
77864;SDS011;67061;48.524;9.040;2024-01-10T05:41:57;26.63;;;11.35;;
77864;SDS011;67061;48.524;9.040;2024-01-10T05:44:24;25.58;;;12.13;;
77864;SDS011;67061;48.524;9.040;2024-01-10T05:46:51;29.73;;;12.18;;
77864;SDS011;67061;48.524;9.040;2024-01-10T05:49:17;26.40;;;11.10;;
77864;SDS011;67061;48.524;9.040;2024-01-10T05:51:46;57.75;;;19.45;;
77864;SDS011;67061;48.524;9.040;2024-01-10T05:54:12;27.02;;;12.00;;
77864;SDS011;67061;48.524;9.040;2024-01-10T05:56:40;25.48;;;11.57;;
77864;SDS011;67061;48.524;9.040;2024-01-10T05:59:07;23.90;;;11.35;;
77864;SDS011;67061;48.524;9.040;2024-01-10T06:01:36;26.83;;;11.55;;
77864;SDS011;67061;48.524;9.040;2024-01-10T06:04:03;29.00;;;14.55;;
77864;SDS011;67061;48.524;9.040;2024-01-10T06:06:31;22.40;;;11.40;;
77864;SDS011;67061;48.524;9.040;2024-01-10T06:08:59;27.10;;;11.80;;
77864;SDS011;67061;48.524;9.040;2024-01-10T06:11:26;26.85;;;11.95;;
77864;SDS011;67061;48.524;9.040;2024-01-10T06:13:54;28.92;;;11.48;;
77864;SDS011;67061;48.524;9.040;2024-01-10T06:16:22;30.23;;;12.43;;
77864;SDS011;67061;48.524;9.040;2024-01-10T06:18:49;27.63;;;12.27;;
77864;SDS011;67061;48.524;9.040;2024-01-10T06:21:16;28.45;;;13.02;;
77864;SDS011;67061;48.524;9.040;2024-01-10T06:23:43;29.55;;;14.98;;
77864;SDS011;67061;48.524;9.040;2024-01-10T06:26:11;26.23;;;11.60;;
77864;SDS011;67061;48.524;9.040;2024-01-10T06:28:38;27.70;;;13.25;;
77864;SDS011;67061;48.524;9.040;2024-01-10T06:31:05;27.75;;;11.80;;
77864;SDS011;67061;48.524;9.040;2024-01-10T06:33:32;24.27;;;11.68;;
77864;SDS011;67061;48.524;9.040;2024-01-10T06:35:59;27.90;;;14.30;;
77864;SDS011;67061;48.524;9.040;2024-01-10T06:38:25;31.73;;;13.50;;
77864;SDS011;67061;48.524;9.040;2024-01-10T06:40:53;28.13;;;12.40;;
77864;SDS011;67061;48.524;9.040;2024-01-10T06:43:21;26.38;;;11.73;;
77864;SDS011;67061;48.524;9.040;2024-01-10T06:45:48;34.28;;;14.57;;
77864;SDS011;67061;48.524;9.040;2024-01-10T06:48:15;25.77;;;11.02;;
77864;SDS011;67061;48.524;9.040;2024-01-10T06:50:44;31.35;;;13.65;;
77864;SDS011;67061;48.524;9.040;2024-01-10T06:53:11;26.90;;;12.13;;
77864;SDS011;67061;48.524;9.040;2024-01-10T06:55:39;26.55;;;13.15;;
77864;SDS011;67061;48.524;9.040;2024-01-10T06:58:06;27.98;;;12.25;;
77864;SDS011;67061;48.524;9.040;2024-01-10T07:00:34;28.13;;;11.93;;
77864;SDS011;67061;48.524;9.040;2024-01-10T07:03:03;28.73;;;12.82;;
77864;SDS011;67061;48.524;9.040;2024-01-10T07:05:30;27.95;;;12.40;;
77864;SDS011;67061;48.524;9.040;2024-01-10T07:07:57;30.52;;;12.90;;
77864;SDS011;67061;48.524;9.040;2024-01-10T07:10:24;26.13;;;11.82;;
77864;SDS011;67061;48.524;9.040;2024-01-10T07:12:53;27.73;;;12.85;;
77864;SDS011;67061;48.524;9.040;2024-01-10T07:15:19;23.15;;;10.63;;
77864;SDS011;67061;48.524;9.040;2024-01-10T07:17:48;25.98;;;11.52;;
77864;SDS011;67061;48.524;9.040;2024-01-10T07:20:15;27.25;;;10.85;;
77864;SDS011;67061;48.524;9.040;2024-01-10T07:22:42;24.80;;;10.60;;
77864;SDS011;67061;48.524;9.040;2024-01-10T07:25:09;23.75;;;10.55;;
77864;SDS011;67061;48.524;9.040;2024-01-10T07:27:39;26.65;;;11.07;;
77864;SDS011;67061;48.524;9.040;2024-01-10T07:30:06;28.50;;;12.63;;
77864;SDS011;67061;48.524;9.040;2024-01-10T07:32:38;24.02;;;10.70;;
77864;SDS011;67061;48.524;9.040;2024-01-10T07:35:08;27.27;;;12.23;;
77864;SDS011;67061;48.524;9.040;2024-01-10T07:37:36;25.63;;;12.82;;
77864;SDS011;67061;48.524;9.040;2024-01-10T07:40:03;25.10;;;12.43;;
77864;SDS011;67061;48.524;9.040;2024-01-10T07:42:32;27.42;;;11.82;;
77864;SDS011;67061;48.524;9.040;2024-01-10T07:44:59;24.67;;;11.95;;
77864;SDS011;67061;48.524;9.040;2024-01-10T07:47:29;30.13;;;12.57;;
77864;SDS011;67061;48.524;9.040;2024-01-10T07:49:56;26.45;;;11.70;;
77864;SDS011;67061;48.524;9.040;2024-01-10T07:52:24;23.10;;;10.30;;
77864;SDS011;67061;48.524;9.040;2024-01-10T07:54:51;25.83;;;13.05;;
77864;SDS011;67061;48.524;9.040;2024-01-10T07:57:18;26.95;;;12.13;;
77864;SDS011;67061;48.524;9.040;2024-01-10T07:59:45;22.88;;;10.60;;
77864;SDS011;67061;48.524;9.040;2024-01-10T08:02:12;28.73;;;12.25;;
77864;SDS011;67061;48.524;9.040;2024-01-10T08:04:39;27.70;;;12.52;;
77864;SDS011;67061;48.524;9.040;2024-01-10T08:07:06;29.58;;;13.10;;
77864;SDS011;67061;48.524;9.040;2024-01-10T08:09:34;26.75;;;10.60;;
77864;SDS011;67061;48.524;9.040;2024-01-10T08:12:01;28.85;;;12.20;;
77864;SDS011;67061;48.524;9.040;2024-01-10T08:14:29;26.73;;;11.93;;
77864;SDS011;67061;48.524;9.040;2024-01-10T08:16:55;28.98;;;12.32;;
77864;SDS011;67061;48.524;9.040;2024-01-10T08:19:23;32.03;;;15.30;;
77864;SDS011;67061;48.524;9.040;2024-01-10T08:21:51;30.13;;;13.35;;
77864;SDS011;67061;48.524;9.040;2024-01-10T08:24:18;30.25;;;11.93;;
77864;SDS011;67061;48.524;9.040;2024-01-10T08:26:47;33.72;;;12.52;;
77864;SDS011;67061;48.524;9.040;2024-01-10T08:29:16;30.38;;;11.43;;
77864;SDS011;67061;48.524;9.040;2024-01-10T08:31:43;28.77;;;13.15;;
77864;SDS011;67061;48.524;9.040;2024-01-10T08:34:10;27.40;;;12.10;;
77864;SDS011;67061;48.524;9.040;2024-01-10T08:36:37;28.92;;;13.30;;
77864;SDS011;67061;48.524;9.040;2024-01-10T08:39:04;27.95;;;13.20;;
77864;SDS011;67061;48.524;9.040;2024-01-10T08:41:31;27.73;;;13.32;;
77864;SDS011;67061;48.524;9.040;2024-01-10T08:44:00;29.45;;;13.93;;
77864;SDS011;67061;48.524;9.040;2024-01-10T08:46:27;26.60;;;13.73;;
77864;SDS011;67061;48.524;9.040;2024-01-10T08:48:54;30.10;;;14.40;;
77864;SDS011;67061;48.524;9.040;2024-01-10T08:51:21;30.10;;;13.85;;
77864;SDS011;67061;48.524;9.040;2024-01-10T08:53:48;30.27;;;13.00;;
77864;SDS011;67061;48.524;9.040;2024-01-10T08:56:15;31.60;;;13.18;;
77864;SDS011;67061;48.524;9.040;2024-01-10T08:58:42;32.80;;;14.90;;
77864;SDS011;67061;48.524;9.040;2024-01-10T09:01:10;29.08;;;13.82;;
77864;SDS011;67061;48.524;9.040;2024-01-10T09:03:37;28.40;;;13.35;;
77864;SDS011;67061;48.524;9.040;2024-01-10T09:08:34;31.48;;;12.68;;
77864;SDS011;67061;48.524;9.040;2024-01-10T09:13:31;25.63;;;12.38;;
77864;SDS011;67061;48.524;9.040;2024-01-10T09:15:59;32.75;;;14.07;;
77864;SDS011;67061;48.524;9.040;2024-01-10T09:18:27;29.02;;;14.27;;
77864;SDS011;67061;48.524;9.040;2024-01-10T09:20:54;31.90;;;14.45;;
77864;SDS011;67061;48.524;9.040;2024-01-10T09:23:20;31.77;;;13.98;;
77864;SDS011;67061;48.524;9.040;2024-01-10T09:25:47;30.42;;;14.13;;
77864;SDS011;67061;48.524;9.040;2024-01-10T09:28:14;32.50;;;14.30;;
77864;SDS011;67061;48.524;9.040;2024-01-10T09:30:41;30.65;;;13.82;;
77864;SDS011;67061;48.524;9.040;2024-01-10T09:33:08;29.83;;;13.40;;
77864;SDS011;67061;48.524;9.040;2024-01-10T09:35:37;31.63;;;13.70;;
77864;SDS011;67061;48.524;9.040;2024-01-10T09:38:04;31.90;;;13.32;;
77864;SDS011;67061;48.524;9.040;2024-01-10T09:40:31;28.40;;;14.40;;
77864;SDS011;67061;48.524;9.040;2024-01-10T09:42:58;33.45;;;14.10;;
77864;SDS011;67061;48.524;9.040;2024-01-10T09:45:25;28.52;;;13.13;;
77864;SDS011;67061;48.524;9.040;2024-01-10T09:47:54;32.58;;;12.73;;
77864;SDS011;67061;48.524;9.040;2024-01-10T09:50:23;29.40;;;12.77;;
77864;SDS011;67061;48.524;9.040;2024-01-10T09:52:52;28.77;;;14.25;;
77864;SDS011;67061;48.524;9.040;2024-01-10T09:55:22;26.92;;;13.55;;
77864;SDS011;67061;48.524;9.040;2024-01-10T09:57:49;26.10;;;13.30;;
77864;SDS011;67061;48.524;9.040;2024-01-10T10:00:17;27.70;;;12.15;;
77864;SDS011;67061;48.524;9.040;2024-01-10T10:02:45;29.40;;;14.25;;
77864;SDS011;67061;48.524;9.040;2024-01-10T10:05:14;27.25;;;12.77;;
77864;SDS011;67061;48.524;9.040;2024-01-10T10:07:45;27.77;;;12.75;;
77864;SDS011;67061;48.524;9.040;2024-01-10T10:10:14;30.10;;;13.52;;
77864;SDS011;67061;48.524;9.040;2024-01-10T10:12:42;25.83;;;13.80;;
77864;SDS011;67061;48.524;9.040;2024-01-10T10:15:10;32.53;;;14.65;;
77864;SDS011;67061;48.524;9.040;2024-01-10T10:17:39;28.48;;;14.38;;
77864;SDS011;67061;48.524;9.040;2024-01-10T10:20:11;25.02;;;12.55;;
77864;SDS011;67061;48.524;9.040;2024-01-10T10:22:40;30.25;;;14.48;;
77864;SDS011;67061;48.524;9.040;2024-01-10T10:25:25;29.13;;;13.43;;
77864;SDS011;67061;48.524;9.040;2024-01-10T10:27:54;26.63;;;12.40;;
77864;SDS011;67061;48.524;9.040;2024-01-10T10:30:21;28.13;;;13.00;;
77864;SDS011;67061;48.524;9.040;2024-01-10T10:32:48;31.73;;;12.80;;
77864;SDS011;67061;48.524;9.040;2024-01-10T10:35:15;29.52;;;12.15;;
77864;SDS011;67061;48.524;9.040;2024-01-10T10:37:44;24.50;;;11.13;;
77864;SDS011;67061;48.524;9.040;2024-01-10T10:40:11;27.00;;;12.25;;
77864;SDS011;67061;48.524;9.040;2024-01-10T10:42:40;25.52;;;12.30;;
77864;SDS011;67061;48.524;9.040;2024-01-10T10:45:12;28.70;;;12.18;;
77864;SDS011;67061;48.524;9.040;2024-01-10T10:47:43;25.30;;;12.18;;
77864;SDS011;67061;48.524;9.040;2024-01-10T10:50:12;28.27;;;13.43;;
77864;SDS011;67061;48.524;9.040;2024-01-10T10:52:41;29.00;;;12.48;;
77864;SDS011;67061;48.524;9.040;2024-01-10T10:55:13;30.10;;;13.30;;
77864;SDS011;67061;48.524;9.040;2024-01-10T10:57:44;30.35;;;12.93;;
77864;SDS011;67061;48.524;9.040;2024-01-10T11:00:12;30.15;;;12.70;;
77864;SDS011;67061;48.524;9.040;2024-01-10T11:02:42;33.85;;;14.30;;
77864;SDS011;67061;48.524;9.040;2024-01-10T11:05:09;31.50;;;13.77;;
77864;SDS011;67061;48.524;9.040;2024-01-10T11:07:37;27.38;;;11.70;;
77864;SDS011;67061;48.524;9.040;2024-01-10T11:10:05;26.42;;;12.35;;
77864;SDS011;67061;48.524;9.040;2024-01-10T11:12:42;25.23;;;11.60;;
77864;SDS011;67061;48.524;9.040;2024-01-10T11:15:24;27.08;;;12.02;;
77864;SDS011;67061;48.524;9.040;2024-01-10T11:18:11;23.98;;;11.60;;
77864;SDS011;67061;48.524;9.040;2024-01-10T11:21:12;26.17;;;12.13;;
77864;SDS011;67061;48.524;9.040;2024-01-10T11:23:51;26.98;;;12.25;;
77864;SDS011;67061;48.524;9.040;2024-01-10T11:26:20;26.70;;;12.77;;
77864;SDS011;67061;48.524;9.040;2024-01-10T11:28:48;26.30;;;12.48;;
77864;SDS011;67061;48.524;9.040;2024-01-10T11:31:26;26.77;;;12.52;;
77864;SDS011;67061;48.524;9.040;2024-01-10T11:33:55;25.23;;;10.93;;
77864;SDS011;67061;48.524;9.040;2024-01-10T11:36:22;24.58;;;11.60;;
77864;SDS011;67061;48.524;9.040;2024-01-10T11:38:53;27.35;;;12.77;;
77864;SDS011;67061;48.524;9.040;2024-01-10T11:41:23;24.90;;;11.57;;
77864;SDS011;67061;48.524;9.040;2024-01-10T11:46:56;28.75;;;12.57;;
77864;SDS011;67061;48.524;9.040;2024-01-10T11:49:24;29.55;;;13.60;;
77864;SDS011;67061;48.524;9.040;2024-01-10T11:51:53;30.42;;;15.75;;
77864;SDS011;67061;48.524;9.040;2024-01-10T11:54:41;30.23;;;14.38;;
77864;SDS011;67061;48.524;9.040;2024-01-10T11:57:12;26.73;;;12.82;;
77864;SDS011;67061;48.524;9.040;2024-01-10T11:59:42;27.88;;;13.85;;
77864;SDS011;67061;48.524;9.040;2024-01-10T12:02:11;29.73;;;14.20;;
77864;SDS011;67061;48.524;9.040;2024-01-10T12:04:38;33.30;;;14.18;;
77864;SDS011;67061;48.524;9.040;2024-01-10T12:07:07;28.23;;;13.50;;
77864;SDS011;67061;48.524;9.040;2024-01-10T12:09:34;31.25;;;14.32;;
77864;SDS011;67061;48.524;9.040;2024-01-10T12:12:01;30.25;;;14.13;;
77864;SDS011;67061;48.524;9.040;2024-01-10T12:14:28;25.58;;;13.80;;
77864;SDS011;67061;48.524;9.040;2024-01-10T12:16:57;27.85;;;13.32;;
77864;SDS011;67061;48.524;9.040;2024-01-10T12:19:25;28.90;;;14.57;;
77864;SDS011;67061;48.524;9.040;2024-01-10T12:21:53;25.75;;;12.85;;
77864;SDS011;67061;48.524;9.040;2024-01-10T12:24:20;25.95;;;12.65;;
77864;SDS011;67061;48.524;9.040;2024-01-10T12:26:48;32.58;;;15.80;;
77864;SDS011;67061;48.524;9.040;2024-01-10T12:29:17;26.25;;;13.32;;
77864;SDS011;67061;48.524;9.040;2024-01-10T12:31:45;27.35;;;13.20;;
77864;SDS011;67061;48.524;9.040;2024-01-10T12:34:13;25.70;;;13.95;;
77864;SDS011;67061;48.524;9.040;2024-01-10T12:36:41;29.25;;;13.82;;
77864;SDS011;67061;48.524;9.040;2024-01-10T12:39:08;26.65;;;14.35;;
77864;SDS011;67061;48.524;9.040;2024-01-10T12:41:35;26.27;;;13.45;;
77864;SDS011;67061;48.524;9.040;2024-01-10T12:44:03;28.75;;;14.50;;
77864;SDS011;67061;48.524;9.040;2024-01-10T12:46:31;30.55;;;16.50;;
77864;SDS011;67061;48.524;9.040;2024-01-10T12:48:59;25.90;;;13.45;;
77864;SDS011;67061;48.524;9.040;2024-01-10T12:51:28;27.58;;;13.55;;
77864;SDS011;67061;48.524;9.040;2024-01-10T12:53:56;23.92;;;12.60;;
77864;SDS011;67061;48.524;9.040;2024-01-10T12:56:24;24.23;;;13.18;;
77864;SDS011;67061;48.524;9.040;2024-01-10T12:58:52;25.38;;;13.05;;
77864;SDS011;67061;48.524;9.040;2024-01-10T13:01:20;25.50;;;13.27;;
77864;SDS011;67061;48.524;9.040;2024-01-10T13:03:48;25.80;;;12.90;;
77864;SDS011;67061;48.524;9.040;2024-01-10T13:06:15;27.05;;;13.75;;
77864;SDS011;67061;48.524;9.040;2024-01-10T13:08:48;24.58;;;13.18;;
77864;SDS011;67061;48.524;9.040;2024-01-10T13:11:15;26.90;;;14.88;;
77864;SDS011;67061;48.524;9.040;2024-01-10T13:13:42;26.55;;;14.30;;
77864;SDS011;67061;48.524;9.040;2024-01-10T13:16:09;22.73;;;13.10;;
77864;SDS011;67061;48.524;9.040;2024-01-10T13:18:37;25.27;;;13.13;;
77864;SDS011;67061;48.524;9.040;2024-01-10T13:21:04;23.67;;;15.07;;
77864;SDS011;67061;48.524;9.040;2024-01-10T13:23:32;26.35;;;13.65;;
77864;SDS011;67061;48.524;9.040;2024-01-10T13:26:02;24.25;;;13.23;;
77864;SDS011;67061;48.524;9.040;2024-01-10T13:28:30;27.08;;;13.82;;
77864;SDS011;67061;48.524;9.040;2024-01-10T13:30:57;22.25;;;13.18;;
77864;SDS011;67061;48.524;9.040;2024-01-10T13:33:23;26.05;;;13.25;;
77864;SDS011;67061;48.524;9.040;2024-01-10T13:35:51;23.92;;;12.82;;
77864;SDS011;67061;48.524;9.040;2024-01-10T13:38:18;28.35;;;16.38;;
77864;SDS011;67061;48.524;9.040;2024-01-10T13:40:45;29.67;;;14.48;;
77864;SDS011;67061;48.524;9.040;2024-01-10T13:43:13;27.45;;;14.43;;
77864;SDS011;67061;48.524;9.040;2024-01-10T13:45:40;26.50;;;14.65;;
77864;SDS011;67061;48.524;9.040;2024-01-10T13:48:08;26.90;;;15.02;;
77864;SDS011;67061;48.524;9.040;2024-01-10T13:50:36;30.20;;;14.48;;
77864;SDS011;67061;48.524;9.040;2024-01-10T13:53:03;27.05;;;13.82;;
77864;SDS011;67061;48.524;9.040;2024-01-10T13:55:30;29.77;;;15.00;;
77864;SDS011;67061;48.524;9.040;2024-01-10T13:57:57;26.30;;;14.00;;
77864;SDS011;67061;48.524;9.040;2024-01-10T14:00:26;25.38;;;13.82;;
77864;SDS011;67061;48.524;9.040;2024-01-10T14:02:52;26.60;;;13.75;;
77864;SDS011;67061;48.524;9.040;2024-01-10T14:05:24;28.10;;;14.52;;
77864;SDS011;67061;48.524;9.040;2024-01-10T14:07:52;26.52;;;14.00;;
77864;SDS011;67061;48.524;9.040;2024-01-10T14:10:19;27.10;;;13.57;;
77864;SDS011;67061;48.524;9.040;2024-01-10T14:12:45;27.75;;;13.68;;
77864;SDS011;67061;48.524;9.040;2024-01-10T14:15:13;26.65;;;12.82;;
77864;SDS011;67061;48.524;9.040;2024-01-10T14:17:41;28.30;;;13.75;;
77864;SDS011;67061;48.524;9.040;2024-01-10T14:20:08;27.35;;;12.52;;
77864;SDS011;67061;48.524;9.040;2024-01-10T14:22:38;27.85;;;13.63;;
77864;SDS011;67061;48.524;9.040;2024-01-10T14:25:06;29.05;;;13.57;;
77864;SDS011;67061;48.524;9.040;2024-01-10T14:27:35;31.88;;;13.27;;
77864;SDS011;67061;48.524;9.040;2024-01-10T14:30:04;31.45;;;13.82;;
77864;SDS011;67061;48.524;9.040;2024-01-10T14:32:33;28.13;;;14.27;;
77864;SDS011;67061;48.524;9.040;2024-01-10T14:35:02;26.40;;;12.73;;